createdAt,value
2019-02-15T00:00:13.486Z,24.77
2019-02-15T00:02:40.548Z,27.27
2019-02-15T00:05:07.586Z,27.13
2019-02-15T00:07:34.313Z,24.97
2019-02-15T00:10:01.578Z,24.50
2019-02-15T00:12:28.535Z,28.00
2019-02-15T00:14:55.444Z,25.70
2019-02-15T00:17:22.295Z,24.13
2019-02-15T00:19:49.047Z,26.30
2019-02-15T00:22:15.772Z,26.90
2019-02-15T00:24:42.623Z,24.53
2019-02-15T00:27:09.467Z,23.20
2019-02-15T00:29:36.308Z,27.17
2019-02-15T00:32:03.041Z,25.27
2019-02-15T00:34:29.777Z,27.50
2019-02-15T00:36:56.821Z,24.77
2019-02-15T00:39:23.563Z,26.47
2019-02-15T00:41:50.385Z,24.87
2019-02-15T00:44:17.155Z,26.50
2019-02-15T00:46:43.881Z,23.80
2019-02-15T00:49:10.634Z,21.97
2019-02-15T00:51:37.374Z,22.90
2019-02-15T00:54:04.205Z,19.77
2019-02-15T00:56:30.840Z,22.50
2019-02-15T00:58:57.476Z,22.53
2019-02-15T01:01:24.225Z,23.53
2019-02-15T01:03:50.966Z,21.07
2019-02-15T01:06:17.807Z,22.20
2019-02-15T01:08:44.548Z,20.37
2019-02-15T01:11:11.288Z,23.83
2019-02-15T01:13:38.128Z,21.47
2019-02-15T01:16:04.862Z,21.83
2019-02-15T01:18:31.711Z,20.87
2019-02-15T01:20:58.449Z,21.80
2019-02-15T01:23:25.172Z,23.60
2019-02-15T01:25:51.923Z,18.20
2019-02-15T01:28:18.655Z,18.63
2019-02-15T01:30:45.360Z,22.33
2019-02-15T01:33:12.148Z,20.93
2019-02-15T01:35:38.873Z,19.67
2019-02-15T01:38:05.517Z,22.73
2019-02-15T01:40:32.362Z,22.20
2019-02-15T01:42:59.194Z,22.80
2019-02-15T01:45:25.943Z,22.60
2019-02-15T01:47:52.682Z,22.53
2019-02-15T01:50:19.426Z,21.60
2019-02-15T01:52:46.196Z,20.33
2019-02-15T01:55:13.006Z,20.43
2019-02-15T01:57:39.696Z,22.47
2019-02-15T02:00:06.371Z,22.80
2019-02-15T02:02:33.112Z,21.53
2019-02-15T02:04:59.861Z,21.83
2019-02-15T02:07:26.695Z,20.50
2019-02-15T02:09:53.426Z,22.60
2019-02-15T02:12:20.083Z,21.43
2019-02-15T02:14:47.011Z,21.43
2019-02-15T02:17:13.749Z,22.97
2019-02-15T02:19:40.590Z,21.60
2019-02-15T02:22:07.534Z,21.03
2019-02-15T02:24:34.284Z,21.47
2019-02-15T02:27:01.227Z,20.37
2019-02-15T02:29:27.959Z,21.73
2019-02-15T02:31:54.816Z,18.43
2019-02-15T02:34:21.565Z,20.73
2019-02-15T02:36:48.264Z,17.77
2019-02-15T02:39:15.029Z,18.37
2019-02-15T02:41:41.970Z,19.13
2019-02-15T02:44:08.811Z,20.10
2019-02-15T02:46:35.562Z,20.90
2019-02-15T02:49:02.282Z,22.63
2019-02-15T02:51:29.029Z,21.20
2019-02-15T02:53:55.767Z,21.03
2019-02-15T02:56:23.041Z,17.30
2019-02-15T02:58:49.960Z,18.53
2019-02-15T03:01:16.809Z,16.93
2019-02-15T03:03:43.563Z,18.87
2019-02-15T03:06:10.367Z,21.07
2019-02-15T03:08:37.221Z,20.37
2019-02-15T03:11:03.967Z,20.13
2019-02-15T03:13:30.708Z,17.13
2019-02-15T03:15:57.440Z,16.57
2019-02-15T03:18:24.177Z,20.20
2019-02-15T03:20:51.033Z,17.10
2019-02-15T03:23:17.868Z,19.87
2019-02-15T03:25:44.602Z,18.23
2019-02-15T03:28:11.536Z,18.07
2019-02-15T03:30:38.514Z,18.87
2019-02-15T03:33:05.448Z,18.03
2019-02-15T03:35:32.179Z,17.80
2019-02-15T03:37:58.913Z,17.83
2019-02-15T03:40:25.661Z,20.27
2019-02-15T03:42:52.349Z,17.20
2019-02-15T03:45:19.140Z,20.07
2019-02-15T03:47:46.004Z,18.03
2019-02-15T03:50:12.840Z,19.63
2019-02-15T03:52:39.716Z,18.03
2019-02-15T03:55:06.609Z,17.47
2019-02-15T03:57:33.451Z,21.00
2019-02-15T04:00:00.393Z,19.97
2019-02-15T04:02:27.134Z,17.83
2019-02-15T04:04:53.866Z,17.13
2019-02-15T04:07:20.623Z,17.30
2019-02-15T04:09:47.453Z,18.17
2019-02-15T04:12:14.184Z,18.63
2019-02-15T04:14:41.518Z,17.57
2019-02-15T04:17:08.358Z,17.43
2019-02-15T04:19:35.182Z,18.57
2019-02-15T04:22:01.967Z,21.43
2019-02-15T04:24:28.709Z,18.70
2019-02-15T04:26:55.475Z,19.10
2019-02-15T04:29:22.292Z,17.93
2019-02-15T04:31:49.127Z,17.50
2019-02-15T04:34:15.965Z,18.17
2019-02-15T04:36:42.705Z,16.43
2019-02-15T04:39:09.545Z,16.70
2019-02-15T04:41:36.244Z,17.07
2019-02-15T04:44:03.149Z,16.10
2019-02-15T04:46:29.977Z,16.30
2019-02-15T04:48:56.714Z,16.47
2019-02-15T04:51:23.453Z,18.40
2019-02-15T04:53:50.187Z,17.67
2019-02-15T04:56:16.940Z,17.43
2019-02-15T04:58:43.817Z,17.87
2019-02-15T05:01:10.608Z,16.70
2019-02-15T05:03:37.427Z,17.60
2019-02-15T05:06:04.188Z,15.47
2019-02-15T05:08:30.913Z,17.20
2019-02-15T05:10:57.766Z,15.67
2019-02-15T05:13:24.543Z,18.67
2019-02-15T05:15:51.374Z,15.60
2019-02-15T05:18:18.100Z,17.43
2019-02-15T05:20:44.947Z,15.60
2019-02-15T05:23:11.785Z,17.97
2019-02-15T05:25:38.617Z,18.27
2019-02-15T05:28:05.370Z,18.03
2019-02-15T05:30:32.633Z,17.83
2019-02-15T05:32:59.454Z,17.70
2019-02-15T05:35:26.292Z,13.60
2019-02-15T05:37:53.016Z,15.37
2019-02-15T05:40:19.779Z,15.37
2019-02-15T05:42:46.505Z,15.07
2019-02-15T05:45:13.245Z,15.07
2019-02-15T05:47:40.094Z,15.37
2019-02-15T05:50:06.828Z,14.37
2019-02-15T05:52:33.566Z,15.73
2019-02-15T05:55:00.391Z,14.27
2019-02-15T05:57:27.248Z,16.73
2019-02-15T05:59:54.302Z,15.53
2019-02-15T06:02:21.044Z,15.87
2019-02-15T06:04:47.782Z,17.07
2019-02-15T06:07:14.481Z,15.50
2019-02-15T06:09:41.148Z,15.43
2019-02-15T06:12:07.860Z,14.90
2019-02-15T06:14:34.657Z,14.67
2019-02-15T06:17:01.958Z,16.57
2019-02-15T06:19:28.676Z,16.00
2019-02-15T06:21:55.472Z,15.37
2019-02-15T06:24:22.314Z,14.73
2019-02-15T06:26:49.153Z,15.83
2019-02-15T06:29:15.893Z,15.00
2019-02-15T06:31:42.621Z,14.00
2019-02-15T06:34:09.376Z,14.97
2019-02-15T06:36:36.225Z,14.33
2019-02-15T06:39:02.955Z,13.97
2019-02-15T06:41:29.796Z,14.37
2019-02-15T06:43:56.639Z,16.10
2019-02-15T06:46:23.332Z,15.00
2019-02-15T06:48:50.102Z,15.03
2019-02-15T06:51:16.857Z,15.17
2019-02-15T06:53:43.549Z,14.60
2019-02-15T06:56:10.323Z,12.70
2019-02-15T06:58:45.246Z,13.27
2019-02-15T07:01:05.437Z,13.00
2019-02-15T07:03:32.136Z,14.77
2019-02-15T07:05:58.825Z,15.80
2019-02-15T07:08:25.557Z,13.67
2019-02-15T07:10:52.306Z,17.57
2019-02-15T07:13:19.558Z,15.70
2019-02-15T07:15:46.305Z,17.97
2019-02-15T07:18:13.036Z,16.00
2019-02-15T07:20:39.760Z,17.33
2019-02-15T07:23:06.500Z,18.80
2019-02-15T07:25:33.342Z,15.40
2019-02-15T07:28:00.091Z,17.67
2019-02-15T07:30:26.935Z,16.30
2019-02-15T07:32:53.662Z,14.83
2019-02-15T07:35:20.415Z,13.73
2019-02-15T07:37:47.409Z,15.80
2019-02-15T07:40:14.188Z,16.43
2019-02-15T07:42:40.824Z,14.70
2019-02-15T07:45:07.574Z,12.83
2019-02-15T07:47:34.331Z,15.80
2019-02-15T07:50:01.149Z,17.60
2019-02-15T07:52:27.896Z,15.00
2019-02-15T07:54:54.625Z,15.53
2019-02-15T07:57:21.372Z,15.47
2019-02-15T07:59:48.219Z,14.00
2019-02-15T08:02:15.150Z,17.83
2019-02-15T08:04:41.888Z,14.07
2019-02-15T08:07:08.632Z,13.23
2019-02-15T08:09:35.368Z,15.17
2019-02-15T08:12:02.118Z,14.77
2019-02-15T08:14:28.961Z,16.63
2019-02-15T08:16:55.689Z,14.33
2019-02-15T08:19:22.413Z,15.00
2019-02-15T08:21:49.170Z,14.73
2019-02-15T08:24:15.905Z,13.37
2019-02-15T08:26:42.759Z,14.73
2019-02-15T08:29:09.447Z,14.00
2019-02-15T08:31:36.238Z,13.80
2019-02-15T08:34:02.969Z,16.13
2019-02-15T08:36:29.705Z,15.27
2019-02-15T08:38:56.474Z,13.93
2019-02-15T08:41:23.294Z,16.50
2019-02-15T08:43:50.146Z,15.17
2019-02-15T08:46:16.865Z,16.20
2019-02-15T08:48:46.153Z,16.13
2019-02-15T08:51:12.098Z,15.53
2019-02-15T08:53:38.946Z,15.57
2019-02-15T08:56:05.769Z,18.20
2019-02-15T08:58:32.622Z,16.90
2019-02-15T09:00:59.467Z,18.63
2019-02-15T09:03:26.308Z,17.87
2019-02-15T09:05:53.154Z,17.17
2019-02-15T09:08:19.992Z,17.93
2019-02-15T09:10:46.948Z,16.63
2019-02-15T09:13:13.885Z,16.63
2019-02-15T09:15:40.668Z,17.87
2019-02-15T09:18:07.456Z,17.80
2019-02-15T09:20:34.303Z,21.03
2019-02-15T09:23:01.143Z,16.80
2019-02-15T09:25:27.871Z,19.43
2019-02-15T09:27:54.923Z,18.33
2019-02-15T09:30:21.667Z,17.07
2019-02-15T09:32:48.516Z,15.63
2019-02-15T09:35:15.238Z,16.60
2019-02-15T09:37:41.938Z,15.33
2019-02-15T09:40:08.827Z,14.77
2019-02-15T09:42:35.572Z,17.97
2019-02-15T09:45:02.510Z,16.50
2019-02-15T09:47:29.255Z,18.97
2019-02-15T09:49:55.979Z,17.97
2019-02-15T09:52:22.717Z,20.60
2019-02-15T09:54:49.357Z,18.73
2019-02-15T09:57:16.084Z,21.00
2019-02-15T09:59:42.832Z,19.13
2019-02-15T10:02:09.579Z,19.33
2019-02-15T10:04:36.428Z,19.60
2019-02-15T10:07:03.121Z,22.13
2019-02-15T10:09:29.901Z,22.23
2019-02-15T10:11:56.745Z,19.57
2019-02-15T10:14:23.577Z,23.93
2019-02-15T10:16:50.314Z,24.73
2019-02-15T10:19:22.429Z,26.13
2019-02-15T10:21:45.548Z,26.33
2019-02-15T10:24:12.252Z,25.97
2019-02-15T10:26:39.012Z,26.50
2019-02-15T10:29:05.763Z,25.63
2019-02-15T10:31:32.460Z,25.03
2019-02-15T10:33:59.233Z,25.47
2019-02-15T10:36:25.973Z,25.73
2019-02-15T10:38:52.825Z,23.77
2019-02-15T10:41:19.656Z,20.87
2019-02-15T10:43:46.354Z,22.10
2019-02-15T10:46:13.146Z,26.50
2019-02-15T10:48:39.988Z,28.27
2019-02-15T10:51:06.830Z,24.87
2019-02-15T10:53:33.670Z,26.47
2019-02-15T10:56:00.514Z,25.33
2019-02-15T10:58:27.508Z,25.53
2019-02-15T11:00:54.296Z,27.07
2019-02-15T11:03:21.049Z,24.53
2019-02-15T11:05:48.192Z,22.23
2019-02-15T11:08:14.919Z,22.03
2019-02-15T11:10:41.668Z,23.50
2019-02-15T11:13:08.509Z,22.00
2019-02-15T11:15:35.244Z,21.20
2019-02-15T11:18:02.103Z,19.03
2019-02-15T11:20:28.930Z,18.70
2019-02-15T11:22:55.656Z,16.57
2019-02-15T11:25:22.395Z,16.20
2019-02-15T11:27:49.035Z,15.00
2019-02-15T11:30:15.874Z,13.23
2019-02-15T11:32:42.627Z,12.63
2019-02-15T11:35:09.354Z,13.27
2019-02-15T11:37:36.091Z,13.30
2019-02-15T11:40:02.791Z,14.53
2019-02-15T11:42:29.572Z,16.90
2019-02-15T11:44:56.311Z,18.67
2019-02-15T11:47:23.061Z,16.60
2019-02-15T11:49:49.791Z,15.93
2019-02-15T11:52:16.531Z,16.97
2019-02-15T11:54:44.086Z,17.87
2019-02-15T11:57:10.835Z,16.70
2019-02-15T11:59:38.079Z,18.87
2019-02-15T12:02:06.534Z,15.18
2019-02-15T12:04:33.415Z,15.53
2019-02-15T12:07:00.808Z,16.37
2019-02-15T12:09:27.496Z,18.17
2019-02-15T12:11:54.244Z,16.57
2019-02-15T12:14:21.071Z,15.68
2019-02-15T12:16:47.825Z,14.68
2019-02-15T12:19:14.658Z,16.60
2019-02-15T12:21:41.495Z,16.40
2019-02-15T12:24:08.234Z,16.77
2019-02-15T12:26:34.991Z,16.00
2019-02-15T12:29:01.726Z,15.93
2019-02-15T12:31:28.970Z,14.53
2019-02-15T12:33:55.817Z,16.80
2019-02-15T12:36:22.562Z,16.17
2019-02-15T12:38:49.292Z,15.83
2019-02-15T12:41:15.988Z,15.73
2019-02-15T12:43:43.072Z,15.53
2019-02-15T12:46:10.125Z,14.13
2019-02-15T12:48:36.841Z,17.80
2019-02-15T12:51:03.612Z,16.37
2019-02-15T12:53:30.336Z,17.47
2019-02-15T12:55:57.073Z,15.73
2019-02-15T12:58:23.833Z,16.90
2019-02-15T13:00:50.675Z,14.60
2019-02-15T13:03:17.607Z,16.57
2019-02-15T13:05:44.451Z,17.60
2019-02-15T13:08:11.208Z,16.33
2019-02-15T13:10:38.023Z,17.93
2019-02-15T13:13:04.758Z,16.93
2019-02-15T13:15:31.516Z,15.73
2019-02-15T13:17:58.310Z,17.07
2019-02-15T13:20:25.100Z,16.70
2019-02-15T13:22:51.934Z,18.20
2019-02-15T13:25:18.776Z,15.83
2019-02-15T13:27:45.621Z,15.73
2019-02-15T13:30:12.559Z,17.13
2019-02-15T13:32:39.392Z,15.37
2019-02-15T13:35:06.234Z,15.23
2019-02-15T13:37:32.986Z,14.77
2019-02-15T13:39:59.832Z,17.03
2019-02-15T13:42:26.553Z,17.57
2019-02-15T13:44:53.392Z,15.97
2019-02-15T13:47:20.056Z,19.73
2019-02-15T13:49:46.899Z,17.60
2019-02-15T13:52:13.719Z,29.53
2019-02-15T13:54:40.471Z,25.47
2019-02-15T13:57:07.407Z,16.33
2019-02-15T13:59:34.142Z,17.23
2019-02-15T14:02:01.087Z,17.70
2019-02-15T14:04:27.937Z,23.00
2019-02-15T14:06:54.821Z,18.73
2019-02-15T14:09:21.618Z,21.40
2019-02-15T14:11:48.458Z,18.77
2019-02-15T14:14:15.301Z,19.93
2019-02-15T14:16:42.143Z,19.17
2019-02-15T14:19:08.872Z,19.30
2019-02-15T14:21:44.125Z,21.30
2019-02-15T14:24:04.501Z,22.23
2019-02-15T14:26:31.444Z,17.93
2019-02-15T14:28:58.248Z,19.23
2019-02-15T14:31:24.926Z,21.70
2019-02-15T14:33:51.775Z,21.13
2019-02-15T14:36:18.485Z,20.17
2019-02-15T14:38:45.253Z,21.10
2019-02-15T14:41:11.983Z,21.07
2019-02-15T14:43:38.732Z,18.77
2019-02-15T14:46:05.503Z,22.00
2019-02-15T14:48:32.304Z,20.67
2019-02-15T14:50:59.052Z,20.10
2019-02-15T14:53:25.781Z,19.57
2019-02-15T14:55:52.519Z,19.63
2019-02-15T14:58:19.264Z,19.27
2019-02-15T15:00:46.009Z,22.43
2019-02-15T15:03:12.741Z,22.80
2019-02-15T15:05:39.477Z,19.17
2019-02-15T15:08:15.339Z,20.73
2019-02-15T15:10:42.186Z,19.63
2019-02-15T15:13:09.030Z,18.63
2019-02-15T15:15:35.767Z,19.17
2019-02-15T15:18:12.760Z,20.73
2019-02-15T15:20:31.139Z,19.80
2019-02-15T15:22:58.017Z,21.97
2019-02-15T15:25:25.134Z,22.07
2019-02-15T15:27:51.913Z,20.63
2019-02-15T15:30:18.653Z,21.33
2019-02-15T15:32:45.498Z,19.43
2019-02-15T15:35:12.244Z,19.93
2019-02-15T15:37:39.028Z,20.20
2019-02-15T15:40:05.706Z,20.07
2019-02-15T15:42:32.345Z,20.10
2019-02-15T15:44:59.090Z,21.47
2019-02-15T15:47:25.933Z,20.73
2019-02-15T15:49:52.670Z,18.80
2019-02-15T15:52:19.416Z,21.93
2019-02-15T15:54:46.260Z,21.97
2019-02-15T15:57:13.119Z,22.03
2019-02-15T15:59:39.841Z,22.00
2019-02-15T16:02:06.685Z,21.80
2019-02-15T16:04:33.403Z,19.90
2019-02-15T16:07:00.043Z,20.90
2019-02-15T16:09:28.182Z,18.77
2019-02-15T16:11:54.953Z,20.70
2019-02-15T16:14:21.653Z,21.83
2019-02-15T16:16:48.458Z,19.83
2019-02-15T16:19:15.280Z,22.03
2019-02-15T16:21:44.360Z,21.93
2019-02-15T16:24:12.738Z,20.50
2019-02-15T16:26:38.771Z,22.03
2019-02-15T16:29:05.505Z,21.17
2019-02-15T16:31:32.263Z,24.97
2019-02-15T16:33:58.986Z,20.93
2019-02-15T16:36:25.627Z,22.60
2019-02-15T16:38:52.473Z,21.13
2019-02-15T16:41:19.318Z,26.63
2019-02-15T16:43:46.167Z,23.23
2019-02-15T16:46:12.885Z,29.23
2019-02-15T16:48:42.010Z,23.20
2019-02-15T16:51:07.915Z,26.70
2019-02-15T16:53:34.640Z,24.83
2019-02-15T16:56:01.382Z,25.60
2019-02-15T16:58:28.134Z,24.13
2019-02-15T17:00:54.859Z,26.73
2019-02-15T17:03:21.607Z,25.70
2019-02-15T17:05:48.349Z,26.13
2019-02-15T17:08:15.397Z,24.17
2019-02-15T17:10:42.122Z,25.67
2019-02-15T17:13:08.865Z,27.27
2019-02-15T17:15:35.605Z,26.50
2019-02-15T17:18:02.461Z,24.07
2019-02-15T17:20:29.151Z,24.27
2019-02-15T17:22:55.897Z,27.80
2019-02-15T17:25:22.570Z,26.07
2019-02-15T17:27:49.317Z,23.07
2019-02-15T17:30:16.356Z,25.40
2019-02-15T17:32:43.196Z,22.67
2019-02-15T17:35:10.130Z,27.60
2019-02-15T17:37:37.184Z,23.90
2019-02-15T17:40:03.889Z,26.23
2019-02-15T17:42:30.657Z,28.03
2019-02-15T17:44:57.506Z,22.33
2019-02-15T17:47:24.250Z,24.20
2019-02-15T17:49:51.084Z,26.07
2019-02-15T17:52:17.826Z,26.33
2019-02-15T17:54:44.558Z,24.90
2019-02-15T17:57:11.413Z,28.33
2019-02-15T17:59:38.260Z,25.13
2019-02-15T18:02:05.100Z,26.83
2019-02-15T18:04:32.030Z,23.13
2019-02-15T18:06:58.877Z,26.10
2019-02-15T18:09:25.611Z,27.80
2019-02-15T18:11:52.344Z,27.73
2019-02-15T18:14:19.024Z,28.37
2019-02-15T18:16:45.839Z,27.17
2019-02-15T18:19:12.565Z,28.83
2019-02-15T18:21:39.276Z,28.50
2019-02-15T18:24:06.129Z,27.43
2019-02-15T18:26:32.915Z,30.57
2019-02-15T18:28:59.743Z,30.33
2019-02-15T18:31:26.576Z,28.37
2019-02-15T18:33:53.523Z,29.73
2019-02-15T18:36:20.252Z,31.07
2019-02-15T18:38:46.992Z,29.20
2019-02-15T18:41:14.870Z,28.90
2019-02-15T18:43:41.597Z,29.73
2019-02-15T18:46:08.333Z,31.17
2019-02-15T18:48:35.070Z,32.37
2019-02-15T18:51:01.833Z,32.63
2019-02-15T18:53:28.550Z,32.87
2019-02-15T18:55:55.301Z,35.93
2019-02-15T18:58:22.027Z,39.10
2019-02-15T19:00:48.665Z,37.17
2019-02-15T19:03:15.405Z,36.33
2019-02-15T19:05:42.154Z,39.73
2019-02-15T19:08:08.906Z,41.50
2019-02-15T19:10:35.634Z,40.07
2019-02-15T19:13:02.484Z,41.17
2019-02-15T19:15:29.319Z,44.80
2019-02-15T19:17:56.158Z,39.90
2019-02-15T19:20:23.107Z,38.57
2019-02-15T19:22:49.942Z,36.57
2019-02-15T19:25:16.888Z,45.23
2019-02-15T19:27:44.052Z,43.23
2019-02-15T19:30:11.145Z,42.40
2019-02-15T19:32:38.107Z,38.17
2019-02-15T19:35:04.771Z,41.40
2019-02-15T19:37:31.524Z,40.20
2019-02-15T19:39:58.345Z,42.90
2019-02-15T19:42:25.048Z,42.87
2019-02-15T19:44:51.716Z,35.80
2019-02-15T19:47:18.351Z,40.43
2019-02-15T19:49:45.639Z,37.77
2019-02-15T19:52:12.687Z,41.00
2019-02-15T19:54:40.121Z,38.23
2019-02-15T19:57:06.848Z,38.50
2019-02-15T19:59:33.558Z,39.40
2019-02-15T20:02:00.328Z,42.37
2019-02-15T20:04:27.276Z,38.47
2019-02-15T20:06:54.102Z,41.53
2019-02-15T20:09:21.065Z,41.10
2019-02-15T20:11:47.901Z,42.67
2019-02-15T20:14:14.744Z,43.60
2019-02-15T20:16:41.574Z,41.80
2019-02-15T20:19:08.216Z,41.10
2019-02-15T20:21:34.960Z,42.40
2019-02-15T20:24:01.806Z,43.57
2019-02-15T20:26:28.504Z,40.40
2019-02-15T20:28:55.271Z,38.53
2019-02-15T20:31:22.021Z,38.67
2019-02-15T20:33:48.859Z,32.80
2019-02-15T20:36:15.693Z,41.77
2019-02-15T20:38:42.347Z,38.60
2019-02-15T20:41:09.071Z,39.77
2019-02-15T20:43:35.788Z,39.30
2019-02-15T20:46:02.455Z,36.80
2019-02-15T20:48:29.297Z,38.03
2019-02-15T20:50:55.992Z,39.70
2019-02-15T20:53:22.672Z,40.63
2019-02-15T20:55:49.364Z,38.57
2019-02-15T20:58:16.102Z,42.83
2019-02-15T21:00:42.983Z,40.63
2019-02-15T21:03:09.735Z,45.73
2019-02-15T21:05:36.429Z,42.83
2019-02-15T21:08:03.214Z,44.43
2019-02-15T21:10:30.795Z,43.10
2019-02-15T21:12:57.819Z,34.70
2019-02-15T21:15:24.547Z,38.67
2019-02-15T21:17:51.247Z,40.73
2019-02-15T21:20:18.138Z,41.87
2019-02-15T21:22:44.917Z,42.00
2019-02-15T21:25:11.850Z,43.37
2019-02-15T21:27:38.661Z,42.60
2019-02-15T21:30:05.437Z,41.10
2019-02-15T21:32:32.242Z,40.90
2019-02-15T21:34:59.125Z,38.17
2019-02-15T21:37:26.177Z,37.83
2019-02-15T21:39:53.489Z,42.43
2019-02-15T21:42:20.217Z,42.07
2019-02-15T21:44:47.078Z,40.10
2019-02-15T21:47:13.977Z,44.23
2019-02-15T21:49:40.740Z,40.43
2019-02-15T21:52:07.493Z,44.23
2019-02-15T21:54:34.335Z,43.23
2019-02-15T21:57:01.064Z,41.27
2019-02-15T21:59:27.801Z,44.30
2019-02-15T22:01:54.546Z,46.37
2019-02-15T22:04:21.406Z,44.30
2019-02-15T22:06:48.238Z,48.23
2019-02-15T22:09:14.937Z,43.00
2019-02-15T22:11:41.710Z,39.17
2019-02-15T22:14:08.546Z,46.97
2019-02-15T22:16:35.291Z,42.40
2019-02-15T22:19:02.133Z,40.83
2019-02-15T22:21:28.965Z,39.60
2019-02-15T22:23:55.702Z,40.00
2019-02-15T22:26:22.461Z,42.20
2019-02-15T22:28:49.395Z,43.57
2019-02-15T22:31:16.431Z,45.17
2019-02-15T22:33:43.183Z,41.23
2019-02-15T22:36:09.875Z,44.07
2019-02-15T22:38:36.957Z,37.63
2019-02-15T22:41:03.696Z,43.13
2019-02-15T22:43:30.656Z,43.40
2019-02-15T22:45:57.697Z,47.67
2019-02-15T22:48:24.393Z,41.97
2019-02-15T22:50:51.279Z,44.67
2019-02-15T22:53:18.011Z,47.17
2019-02-15T22:55:44.855Z,46.80
2019-02-15T22:58:11.588Z,47.07
2019-02-15T23:00:38.337Z,44.07
2019-02-15T23:03:05.140Z,43.73
2019-02-15T23:05:31.920Z,47.33
2019-02-15T23:07:58.646Z,42.40
2019-02-15T23:10:25.312Z,46.93
2019-02-15T23:12:52.137Z,48.00
2019-02-15T23:15:18.979Z,43.63
2019-02-15T23:17:45.717Z,44.80
2019-02-15T23:20:12.959Z,36.77
2019-02-15T23:22:39.730Z,38.47
2019-02-15T23:25:06.770Z,36.60
2019-02-15T23:27:33.595Z,40.40
2019-02-15T23:30:00.458Z,44.07
2019-02-15T23:32:27.278Z,35.10
2019-02-15T23:34:54.021Z,43.07
2019-02-15T23:37:20.747Z,43.10
2019-02-15T23:39:47.590Z,41.40
2019-02-15T23:42:14.337Z,35.13
2019-02-15T23:44:41.072Z,33.77
2019-02-15T23:47:07.921Z,33.57
2019-02-15T23:49:34.646Z,39.30
2019-02-15T23:52:01.400Z,40.70
2019-02-15T23:54:28.239Z,42.60
2019-02-15T23:56:54.971Z,38.13
2019-02-15T23:59:21.712Z,40.67
